createdAt,value
2022-08-29T00:01:17.266Z,19.02
2022-08-29T00:03:47.706Z,20.48
2022-08-29T00:06:18.102Z,22.45
2022-08-29T00:08:48.099Z,19.63
2022-08-29T00:11:18.963Z,23.40
2022-08-29T00:13:49.589Z,22.15
2022-08-29T00:16:20.597Z,21.35
2022-08-29T00:18:51.042Z,22.38
2022-08-29T00:21:21.943Z,27.27
2022-08-29T00:23:52.843Z,25.33
2022-08-29T00:26:22.994Z,24.45
2022-08-29T00:28:56.352Z,20.98
2022-08-29T00:31:26.319Z,21.70
2022-08-29T00:33:59.073Z,23.90
2022-08-29T00:36:30.566Z,24.65
2022-08-29T00:39:01.510Z,22.38
2022-08-29T00:41:32.007Z,27.10
2022-08-29T00:44:02.116Z,22.35
2022-08-29T00:46:51.849Z,20.92
2022-08-29T00:49:35.115Z,22.00
2022-08-29T00:52:25.468Z,28.67
2022-08-29T00:54:56.954Z,20.30
2022-08-29T00:57:29.310Z,20.25
2022-08-29T00:59:59.451Z,20.15
2022-08-29T01:02:29.904Z,19.60
2022-08-29T01:05:01.699Z,16.73
2022-08-29T01:07:32.207Z,19.02
2022-08-29T01:10:13.203Z,19.20
2022-08-29T01:12:43.908Z,19.75
2022-08-29T01:15:15.062Z,17.35
2022-08-29T01:17:47.758Z,16.63
2022-08-29T01:20:37.431Z,16.48
2022-08-29T01:23:15.277Z,17.77
2022-08-29T01:25:49.893Z,18.30
2022-08-29T01:28:22.602Z,17.70
2022-08-29T01:30:59.659Z,16.00
2022-08-29T01:33:30.061Z,17.95
2022-08-29T01:36:00.550Z,18.38
2022-08-29T01:38:31.550Z,14.27
2022-08-29T01:41:02.116Z,15.48
2022-08-29T01:43:32.943Z,9.82
2022-08-29T01:46:03.859Z,7.22
2022-08-29T01:48:34.014Z,4.38
2022-08-29T01:51:04.032Z,4.90
2022-08-29T01:53:34.156Z,8.52
2022-08-29T01:56:11.865Z,4.88
2022-08-29T01:58:42.232Z,6.75
2022-08-29T02:01:13.427Z,6.20
2022-08-29T02:03:44.082Z,6.10
2022-08-29T02:06:15.169Z,13.25
2022-08-29T02:08:46.752Z,8.18
2022-08-29T02:11:18.839Z,4.53
2022-08-29T02:13:54.099Z,6.20
2022-08-29T02:16:25.280Z,6.10
2022-08-29T02:18:56.369Z,5.30
2022-08-29T02:21:27.807Z,5.18
2022-08-29T02:23:59.127Z,5.18
2022-08-29T02:26:29.362Z,5.15
2022-08-29T02:28:59.507Z,5.20
2022-08-29T02:31:32.693Z,5.78
2022-08-29T02:34:02.854Z,11.23
2022-08-29T02:36:33.471Z,4.32
2022-08-29T02:39:04.236Z,4.75
2022-08-29T02:41:34.863Z,3.90
2022-08-29T02:44:06.509Z,6.80
2022-08-29T02:46:36.702Z,5.88
2022-08-29T02:49:06.908Z,4.70
2022-08-29T02:51:37.969Z,7.47
2022-08-29T02:54:08.522Z,4.80
2022-08-29T02:56:38.967Z,3.92
2022-08-29T02:59:09.886Z,4.07
2022-08-29T03:01:40.854Z,4.88
2022-08-29T03:04:11.060Z,7.30
2022-08-29T03:06:41.992Z,10.50
2022-08-29T03:09:12.219Z,6.10
2022-08-29T03:11:42.730Z,13.13
2022-08-29T03:14:12.937Z,7.85
2022-08-29T03:16:46.055Z,5.43
2022-08-29T03:19:16.234Z,12.27
2022-08-29T03:21:47.678Z,16.83
2022-08-29T03:24:25.715Z,13.93
2022-08-29T03:26:57.681Z,10.70
2022-08-29T03:29:29.624Z,5.88
2022-08-29T03:31:59.883Z,4.40
2022-08-29T03:34:30.446Z,7.13
2022-08-29T03:37:00.771Z,6.38
2022-08-29T03:39:31.070Z,5.22
2022-08-29T03:42:01.052Z,6.97
2022-08-29T03:44:31.211Z,7.40
2022-08-29T03:47:01.821Z,5.18
2022-08-29T03:49:33.440Z,5.18
2022-08-29T03:52:03.489Z,5.18
2022-08-29T03:54:34.453Z,7.53
2022-08-29T03:57:07.060Z,6.15
2022-08-29T03:59:37.527Z,3.95
2022-08-29T04:02:07.681Z,7.30
2022-08-29T04:04:57.892Z,8.82
2022-08-29T04:07:28.383Z,10.82
2022-08-29T04:09:59.398Z,5.43
2022-08-29T04:12:29.993Z,9.35
2022-08-29T04:15:00.119Z,4.82
2022-08-29T04:17:30.955Z,8.60
2022-08-29T04:20:01.340Z,5.95
2022-08-29T04:22:31.956Z,5.05
2022-08-29T04:25:02.069Z,7.38
2022-08-29T04:27:33.037Z,5.88
2022-08-29T04:30:03.472Z,8.27
2022-08-29T04:32:33.953Z,6.10
2022-08-29T04:35:04.056Z,7.32
2022-08-29T04:37:34.485Z,9.68
2022-08-29T04:40:04.748Z,8.10
2022-08-29T04:42:37.717Z,9.45
2022-08-29T04:45:09.320Z,9.50
2022-08-29T04:47:39.849Z,12.40
2022-08-29T04:50:11.209Z,11.63
2022-08-29T04:52:41.872Z,8.90
2022-08-29T04:55:13.240Z,9.27
2022-08-29T04:57:43.770Z,8.63
2022-08-29T05:00:16.243Z,6.28
2022-08-29T05:02:47.509Z,9.95
2022-08-29T05:05:19.273Z,6.10
2022-08-29T05:07:50.175Z,6.75
2022-08-29T05:10:22.455Z,5.75
2022-08-29T05:12:52.926Z,6.10
2022-08-29T05:15:22.765Z,6.93
2022-08-29T05:17:54.750Z,5.72
2022-08-29T05:20:25.452Z,5.38
2022-08-29T05:22:55.656Z,6.55
2022-08-29T05:25:26.836Z,6.07
2022-08-29T05:27:57.014Z,6.90
2022-08-29T05:30:34.467Z,5.90
2022-08-29T05:33:05.846Z,6.60
2022-08-29T05:35:37.162Z,5.97
2022-08-29T05:38:09.303Z,6.13
2022-08-29T05:40:40.818Z,6.60
2022-08-29T05:43:12.403Z,6.55
2022-08-29T05:45:43.306Z,6.60
2022-08-29T05:48:16.370Z,6.50
2022-08-29T05:50:47.382Z,10.80
2022-08-29T05:53:20.379Z,7.30
2022-08-29T05:55:50.467Z,7.72
2022-08-29T05:58:20.578Z,7.70
2022-08-29T06:00:51.643Z,7.35
2022-08-29T06:03:22.053Z,8.30
2022-08-29T06:05:56.118Z,18.90
2022-08-29T06:08:26.314Z,8.10
2022-08-29T06:10:57.131Z,8.88
2022-08-29T06:13:27.319Z,21.13
2022-08-29T06:15:57.760Z,19.25
2022-08-29T06:18:34.458Z,22.50
2022-08-29T06:21:07.484Z,9.00
2022-08-29T06:23:39.334Z,9.43
2022-08-29T06:26:10.247Z,10.90
2022-08-29T06:28:41.869Z,9.05
2022-08-29T06:31:16.625Z,10.55
2022-08-29T06:33:47.120Z,10.30
2022-08-29T06:36:17.211Z,9.38
2022-08-29T06:38:47.583Z,9.38
2022-08-29T06:41:18.605Z,8.85
2022-08-29T06:43:49.118Z,10.80
2022-08-29T06:46:30.712Z,8.80
2022-08-29T06:49:03.573Z,10.23
2022-08-29T06:51:35.905Z,10.45
2022-08-29T06:54:07.756Z,9.50
2022-08-29T06:56:38.654Z,9.50
2022-08-29T06:59:09.127Z,9.10
2022-08-29T07:01:39.665Z,8.20
2022-08-29T07:04:14.160Z,8.65
2022-08-29T07:06:45.312Z,9.55
2022-08-29T07:09:16.024Z,9.65
2022-08-29T07:11:46.473Z,9.13
2022-08-29T07:14:16.997Z,9.75
2022-08-29T07:16:47.127Z,9.43
2022-08-29T07:19:17.290Z,8.88
2022-08-29T07:21:47.885Z,10.13
2022-08-29T07:24:18.640Z,9.23
2022-08-29T07:26:51.256Z,8.75
2022-08-29T07:29:22.463Z,8.55
2022-08-29T07:31:52.708Z,8.02
2022-08-29T07:34:23.262Z,8.57
2022-08-29T07:36:53.488Z,12.57
2022-08-29T07:39:24.518Z,9.52
2022-08-29T07:41:54.684Z,8.90
2022-08-29T07:44:25.085Z,9.02
2022-08-29T07:47:02.896Z,8.43
2022-08-29T07:49:41.120Z,9.60
2022-08-29T07:52:11.789Z,9.00
2022-08-29T07:54:42.007Z,8.82
2022-08-29T07:57:12.578Z,9.05
2022-08-29T07:59:42.926Z,9.55
2022-08-29T08:02:13.178Z,9.13
2022-08-29T08:04:43.831Z,8.23
2022-08-29T08:07:15.097Z,7.78
2022-08-29T08:09:46.164Z,7.90
2022-08-29T08:12:18.273Z,7.35
2022-08-29T08:14:48.894Z,7.22
2022-08-29T08:17:19.810Z,7.07
2022-08-29T08:19:49.957Z,7.45
2022-08-29T08:22:20.451Z,7.32
2022-08-29T08:24:51.270Z,6.70
2022-08-29T08:27:21.445Z,6.75
2022-08-29T08:29:51.909Z,13.10
2022-08-29T08:32:32.452Z,7.32
2022-08-29T08:35:03.446Z,7.47
2022-08-29T08:37:33.630Z,7.95
2022-08-29T08:40:04.179Z,7.88
2022-08-29T08:42:44.639Z,8.43
2022-08-29T08:45:17.880Z,8.23
2022-08-29T08:47:59.970Z,7.28
2022-08-29T08:50:37.089Z,7.22
2022-08-29T08:53:15.699Z,7.72
2022-08-29T08:55:57.204Z,6.90
2022-08-29T08:58:47.321Z,7.70
2022-08-29T09:01:37.860Z,12.23
2022-08-29T09:04:27.632Z,7.10
2022-08-29T09:07:17.362Z,6.85
2022-08-29T09:09:58.835Z,7.22
2022-08-29T09:12:43.897Z,6.93
2022-08-29T09:15:18.952Z,7.53
2022-08-29T09:17:59.375Z,7.55
2022-08-29T09:20:31.530Z,7.32
2022-08-29T09:23:11.334Z,7.00
2022-08-29T09:25:42.011Z,8.38
2022-08-29T09:28:12.191Z,8.07
2022-08-29T09:30:44.390Z,7.15
2022-08-29T09:33:16.455Z,7.40
2022-08-29T09:35:51.079Z,7.35
2022-08-29T09:38:25.577Z,7.15
2022-08-29T09:40:58.420Z,7.63
2022-08-29T09:43:50.465Z,8.75
2022-08-29T09:46:24.631Z,8.90
2022-08-29T09:48:57.077Z,8.10
2022-08-29T09:51:32.384Z,7.55
2022-08-29T09:54:22.178Z,8.23
2022-08-29T09:56:58.256Z,9.73
2022-08-29T09:59:49.014Z,11.98
2022-08-29T10:02:23.505Z,8.70
2022-08-29T10:04:55.394Z,8.05
2022-08-29T10:07:28.513Z,7.85
2022-08-29T10:10:08.265Z,8.27
2022-08-29T10:12:58.328Z,9.13
2022-08-29T10:15:49.863Z,11.07
2022-08-29T10:18:41.185Z,12.15
2022-08-29T10:21:19.160Z,8.77
2022-08-29T10:24:09.153Z,11.77
2022-08-29T10:26:48.715Z,12.23
2022-08-29T10:29:31.844Z,12.57
2022-08-29T10:32:08.431Z,23.65
2022-08-29T10:34:58.500Z,16.70
2022-08-29T10:37:48.531Z,10.65
2022-08-29T10:40:24.225Z,11.52
2022-08-29T10:42:59.806Z,13.15
2022-08-29T10:45:49.444Z,37.22
2022-08-29T10:48:23.851Z,11.93
2022-08-29T10:51:06.298Z,33.17
2022-08-29T10:53:39.103Z,42.67
2022-08-29T10:56:29.098Z,71.18
2022-08-29T10:59:19.983Z,116.57
2022-08-29T11:01:54.825Z,50.78
2022-08-29T11:04:44.512Z,59.05
2022-08-29T11:07:19.146Z,16.40
2022-08-29T11:09:57.976Z,27.48
2022-08-29T11:12:47.951Z,18.13
2022-08-29T11:15:37.721Z,21.13
2022-08-29T11:18:16.092Z,20.63
2022-08-29T11:20:57.658Z,21.85
2022-08-29T11:23:45.374Z,43.40
2022-08-29T11:26:35.366Z,19.58
2022-08-29T11:29:26.184Z,18.70
2022-08-29T11:32:10.281Z,16.83
2022-08-29T11:35:00.278Z,17.98
2022-08-29T11:37:50.346Z,17.13
2022-08-29T11:40:48.026Z,16.58
2022-08-29T11:43:26.509Z,15.32
2022-08-29T11:46:01.719Z,17.35
2022-08-29T11:48:35.684Z,21.92
2022-08-29T11:51:25.484Z,29.85
2022-08-29T11:53:55.633Z,16.48
2022-08-29T11:56:28.370Z,16.85
2022-08-29T11:59:01.248Z,16.63
2022-08-29T12:01:50.730Z,13.70
2022-08-29T12:04:40.781Z,13.50
2022-08-29T12:07:11.570Z,13.27
2022-08-29T12:09:51.794Z,12.55
2022-08-29T12:12:38.349Z,14.05
2022-08-29T12:15:28.358Z,12.82
2022-08-29T12:18:02.941Z,12.48
2022-08-29T12:20:42.307Z,15.40
2022-08-29T12:23:35.454Z,10.50
2022-08-29T12:26:21.973Z,11.63
2022-08-29T12:29:10.132Z,11.88
2022-08-29T12:32:02.231Z,9.55
2022-08-29T12:34:45.798Z,11.20
2022-08-29T12:37:30.154Z,10.25
2022-08-29T12:40:09.912Z,12.45
2022-08-29T12:42:54.138Z,9.38
2022-08-29T12:45:33.386Z,9.68
2022-08-29T12:48:07.838Z,11.63
2022-08-29T12:50:45.035Z,12.32
2022-08-29T12:53:20.489Z,9.38
2022-08-29T12:55:51.814Z,9.02
2022-08-29T12:58:41.660Z,9.45
2022-08-29T13:01:32.807Z,11.20
2022-08-29T13:04:07.701Z,9.07
2022-08-29T13:06:38.279Z,11.55
2022-08-29T13:09:11.487Z,10.07
2022-08-29T13:11:47.804Z,11.05
2022-08-29T13:14:17.770Z,13.50
2022-08-29T13:16:48.776Z,16.13
2022-08-29T13:19:23.683Z,14.25
2022-08-29T13:22:04.693Z,14.15
2022-08-29T13:24:35.310Z,12.88
2022-08-29T13:27:08.455Z,12.68
2022-08-29T13:29:43.936Z,14.82
2022-08-29T13:32:25.312Z,13.25
2022-08-29T13:35:07.924Z,14.38
2022-08-29T13:37:39.660Z,10.10
2022-08-29T13:40:29.691Z,11.10
2022-08-29T13:43:00.710Z,8.93
2022-08-29T13:45:31.306Z,16.30
2022-08-29T13:48:04.450Z,12.38
2022-08-29T13:50:34.912Z,12.13
2022-08-29T13:53:05.132Z,11.65
2022-08-29T13:55:36.185Z,22.95
2022-08-29T13:58:06.878Z,18.23
2022-08-29T14:00:37.899Z,19.33
2022-08-29T14:03:09.784Z,16.10
2022-08-29T14:05:40.507Z,18.98
2022-08-29T14:08:12.585Z,15.00
2022-08-29T14:10:42.816Z,15.15
2022-08-29T14:13:13.664Z,14.13
2022-08-29T14:15:43.809Z,14.68
2022-08-29T14:18:14.254Z,15.13
2022-08-29T14:20:44.557Z,13.65
2022-08-29T14:23:15.106Z,13.43
2022-08-29T14:25:45.861Z,14.18
2022-08-29T14:28:16.328Z,15.75
2022-08-29T14:30:51.695Z,19.40
2022-08-29T14:33:24.988Z,13.10
2022-08-29T14:35:56.523Z,17.50
2022-08-29T14:38:28.346Z,12.82
2022-08-29T14:40:58.789Z,14.82
2022-08-29T14:43:29.497Z,16.52
2022-08-29T14:45:59.925Z,16.30
2022-08-29T14:48:31.600Z,18.67
2022-08-29T14:51:02.387Z,19.48
2022-08-29T14:53:37.908Z,15.77
2022-08-29T14:56:47.102Z,24.30
2022-08-29T14:59:16.272Z,16.38
2022-08-29T15:01:51.297Z,13.93
2022-08-29T15:04:37.092Z,15.40
2022-08-29T15:07:13.426Z,15.15
2022-08-29T15:09:45.507Z,20.90
2022-08-29T15:12:16.164Z,14.95
2022-08-29T15:14:48.077Z,20.40
2022-08-29T15:17:18.444Z,20.95
2022-08-29T15:20:34.993Z,15.82
2022-08-29T15:22:39.905Z,15.48
2022-08-29T15:25:10.054Z,18.75
2022-08-29T15:27:40.216Z,17.90
2022-08-29T15:30:11.987Z,14.88
2022-08-29T15:32:42.382Z,17.25
2022-08-29T15:35:15.191Z,14.43
2022-08-29T15:37:45.793Z,15.77
2022-08-29T15:40:16.407Z,15.23
2022-08-29T15:42:46.902Z,15.07
2022-08-29T15:45:17.389Z,17.85
2022-08-29T15:47:47.676Z,19.08
2022-08-29T15:50:18.063Z,15.93
2022-08-29T15:52:48.593Z,19.58
2022-08-29T15:55:18.749Z,17.77
2022-08-29T15:57:52.116Z,17.55
2022-08-29T16:00:25.850Z,13.88
2022-08-29T16:03:02.105Z,18.88
2022-08-29T16:05:33.057Z,17.65
2022-08-29T16:08:03.496Z,18.05
2022-08-29T16:10:33.786Z,19.10
2022-08-29T16:13:03.951Z,17.98
2022-08-29T16:15:35.355Z,16.60
2022-08-29T16:18:06.938Z,14.57
2022-08-29T16:20:38.033Z,19.20
2022-08-29T16:23:10.735Z,16.73
2022-08-29T16:25:41.415Z,17.98
2022-08-29T16:28:14.773Z,18.90
2022-08-29T16:30:46.028Z,17.92
2022-08-29T16:33:17.601Z,18.52
2022-08-29T16:35:48.190Z,19.52
2022-08-29T16:38:18.560Z,17.80
2022-08-29T16:40:49.377Z,22.20
2022-08-29T16:43:20.294Z,18.85
2022-08-29T16:45:50.777Z,22.38
2022-08-29T16:48:21.289Z,20.05
2022-08-29T16:50:51.669Z,20.67
2022-08-29T16:53:22.493Z,19.13
2022-08-29T16:55:52.942Z,20.92
2022-08-29T16:58:42.794Z,19.05
2022-08-29T17:01:13.355Z,18.58
2022-08-29T17:03:43.582Z,21.83
2022-08-29T17:06:14.258Z,19.08
2022-08-29T17:08:44.522Z,20.45
2022-08-29T17:11:14.247Z,18.95
2022-08-29T17:13:44.479Z,22.15
2022-08-29T17:16:14.301Z,21.05
2022-08-29T17:18:44.463Z,21.40
2022-08-29T17:21:15.389Z,19.95
2022-08-29T17:23:45.849Z,21.23
2022-08-29T17:26:18.325Z,25.15
2022-08-29T17:28:49.599Z,21.80
2022-08-29T17:31:20.307Z,21.92
2022-08-29T17:33:50.939Z,21.60
2022-08-29T17:36:22.716Z,24.48
2022-08-29T17:38:52.993Z,22.38
2022-08-29T17:41:24.941Z,23.58
2022-08-29T17:43:55.474Z,23.38
2022-08-29T17:46:25.774Z,26.02
2022-08-29T17:48:56.611Z,26.50
2022-08-29T17:51:27.059Z,24.73
2022-08-29T17:53:56.962Z,25.00
2022-08-29T17:56:44.456Z,23.20
2022-08-29T17:59:16.298Z,24.67
2022-08-29T18:01:46.843Z,22.92
2022-08-29T18:04:17.736Z,24.27
2022-08-29T18:06:48.615Z,25.33
2022-08-29T18:09:21.045Z,24.63
2022-08-29T18:11:52.340Z,24.50
2022-08-29T18:14:25.118Z,24.10
2022-08-29T18:16:55.719Z,23.55
2022-08-29T18:19:27.947Z,26.30
2022-08-29T18:21:58.356Z,21.35
2022-08-29T18:24:28.875Z,24.50
2022-08-29T18:26:59.294Z,25.35
2022-08-29T18:29:29.428Z,22.02
2022-08-29T18:31:59.236Z,23.60
2022-08-29T18:34:30.040Z,24.60
2022-08-29T18:37:00.507Z,23.60
2022-08-29T18:39:30.662Z,26.52
2022-08-29T18:42:01.067Z,23.52
2022-08-29T18:44:30.915Z,24.02
2022-08-29T18:47:01.203Z,26.38
2022-08-29T18:49:50.954Z,23.35
2022-08-29T18:52:21.686Z,22.17
2022-08-29T18:54:52.297Z,24.60
2022-08-29T18:57:23.128Z,23.75
2022-08-29T18:59:53.313Z,24.92
2022-08-29T19:02:23.667Z,29.15
2022-08-29T19:04:53.856Z,24.38
2022-08-29T19:07:24.446Z,24.80
2022-08-29T19:09:55.467Z,24.58
2022-08-29T19:12:25.843Z,21.95
2022-08-29T19:14:57.478Z,23.25
2022-08-29T19:17:27.735Z,20.80
2022-08-29T19:20:17.449Z,22.20
2022-08-29T19:22:48.288Z,23.77
2022-08-29T19:25:18.453Z,23.38
2022-08-29T19:27:48.670Z,20.92
2022-08-29T19:30:20.212Z,18.17
2022-08-29T19:32:50.365Z,21.65
2022-08-29T19:35:21.112Z,20.20
2022-08-29T19:37:53.309Z,20.25
2022-08-29T19:40:23.866Z,20.55
2022-08-29T19:42:55.514Z,22.55
2022-08-29T19:45:27.046Z,19.20
2022-08-29T19:47:57.808Z,21.92
2022-08-29T19:50:28.107Z,21.42
2022-08-29T19:52:58.316Z,20.17
2022-08-29T19:55:28.509Z,21.15
2022-08-29T19:57:58.922Z,17.60
2022-08-29T20:00:30.269Z,16.63
2022-08-29T20:03:01.477Z,16.92
2022-08-29T20:05:31.337Z,18.20
2022-08-29T20:08:01.475Z,17.35
2022-08-29T20:10:32.852Z,17.70
2022-08-29T20:13:04.936Z,18.23
2022-08-29T20:15:35.099Z,18.65
2022-08-29T20:18:06.754Z,15.88
2022-08-29T20:20:40.041Z,15.20
2022-08-29T20:23:11.341Z,17.25
2022-08-29T20:25:41.571Z,18.52
2022-08-29T20:28:11.648Z,14.40
2022-08-29T20:30:46.256Z,14.15
2022-08-29T20:33:20.354Z,16.08
2022-08-29T20:36:10.098Z,14.52
2022-08-29T20:38:40.895Z,18.73
2022-08-29T20:41:10.967Z,17.73
2022-08-29T20:43:41.125Z,19.65
2022-08-29T20:46:12.513Z,19.40
2022-08-29T20:48:42.709Z,20.38
2022-08-29T20:51:13.362Z,21.02
2022-08-29T20:53:44.077Z,21.60
2022-08-29T20:56:14.497Z,19.70
2022-08-29T20:58:44.651Z,19.17
2022-08-29T21:01:15.116Z,18.95
2022-08-29T21:04:05.188Z,20.23
2022-08-29T21:06:36.070Z,18.73
2022-08-29T21:09:07.094Z,19.73
2022-08-29T21:11:36.936Z,25.83
2022-08-29T21:14:07.413Z,20.15
2022-08-29T21:16:37.751Z,20.58
2022-08-29T21:19:11.188Z,18.88
2022-08-29T21:21:42.721Z,20.85
2022-08-29T21:24:13.088Z,18.75
2022-08-29T21:26:42.967Z,16.52
2022-08-29T21:29:13.065Z,17.30
2022-08-29T21:31:43.008Z,17.70
2022-08-29T21:34:13.182Z,18.25
2022-08-29T21:36:43.327Z,19.02
2022-08-29T21:39:19.602Z,19.95
2022-08-29T21:42:02.572Z,23.35
2022-08-29T21:44:33.505Z,20.15
2022-08-29T21:47:03.974Z,21.45
2022-08-29T21:49:34.512Z,20.90
2022-08-29T21:52:04.969Z,21.38
2022-08-29T21:54:36.156Z,21.83
2022-08-29T21:57:06.614Z,20.83
2022-08-29T21:59:36.774Z,22.88
2022-08-29T22:02:07.571Z,23.17
2022-08-29T22:04:37.856Z,25.30
2022-08-29T22:07:08.587Z,23.88
2022-08-29T22:09:39.496Z,22.98
2022-08-29T22:12:10.160Z,23.38
2022-08-29T22:15:00.117Z,24.23
2022-08-29T22:17:30.656Z,20.73
2022-08-29T22:20:01.458Z,21.10
2022-08-29T22:22:31.644Z,20.65
2022-08-29T22:25:02.266Z,21.67
2022-08-29T22:27:32.448Z,27.23
2022-08-29T22:30:02.710Z,20.45
2022-08-29T22:32:35.895Z,19.08
2022-08-29T22:35:08.349Z,24.08
2022-08-29T22:37:38.563Z,22.10
2022-08-29T22:40:11.733Z,18.83
2022-08-29T22:42:42.393Z,20.48
2022-08-29T22:45:13.652Z,22.52
2022-08-29T22:47:45.333Z,22.83
2022-08-29T22:50:17.217Z,18.88
2022-08-29T22:52:47.889Z,18.52
2022-08-29T22:55:19.552Z,21.50
2022-08-29T22:57:50.965Z,23.17
2022-08-29T23:00:23.496Z,21.55
2022-08-29T23:02:54.797Z,20.73
2022-08-29T23:05:26.333Z,21.02
2022-08-29T23:07:56.705Z,24.42
2022-08-29T23:10:26.616Z,21.98
2022-08-29T23:12:57.185Z,20.27
2022-08-29T23:15:27.424Z,34.28
2022-08-29T23:17:58.254Z,36.88
2022-08-29T23:20:29.134Z,40.35
2022-08-29T23:23:00.337Z,23.52
2022-08-29T23:25:31.139Z,21.75
2022-08-29T23:28:02.624Z,22.38
2022-08-29T23:30:32.654Z,26.30
2022-08-29T23:33:02.465Z,18.92
2022-08-29T23:35:32.533Z,20.88
2022-08-29T23:38:03.357Z,18.63
2022-08-29T23:40:38.555Z,21.45
2022-08-29T23:43:11.833Z,19.73
2022-08-29T23:45:42.497Z,17.05
2022-08-29T23:48:12.716Z,16.20
2022-08-29T23:50:43.308Z,16.55
2022-08-29T23:53:17.264Z,16.55
2022-08-29T23:55:47.769Z,30.23
2022-08-29T23:58:18.270Z,31.02
